createdAt,value
2024-03-06T00:00:21.371Z,3.10
2024-03-06T00:02:49.586Z,3.50
2024-03-06T00:05:17.918Z,3.83
2024-03-06T00:07:46.329Z,3.17
2024-03-06T00:10:14.636Z,2.83
2024-03-06T00:12:44.403Z,3.20
2024-03-06T00:15:12.625Z,2.73
2024-03-06T00:17:40.825Z,3.23
2024-03-06T00:20:11.926Z,2.90
2024-03-06T00:22:40.324Z,2.80
2024-03-06T00:25:09.560Z,3.83
2024-03-06T00:27:37.740Z,2.80
2024-03-06T00:30:09.100Z,2.97
2024-03-06T00:32:37.333Z,2.93
2024-03-06T00:35:06.375Z,2.57
2024-03-06T00:37:34.611Z,2.37
2024-03-06T00:40:02.833Z,2.70
2024-03-06T00:42:31.119Z,2.40
2024-03-06T00:44:59.347Z,2.20
2024-03-06T00:47:28.938Z,2.70
2024-03-06T00:49:57.370Z,2.43
2024-03-06T00:52:25.606Z,2.73
2024-03-06T00:54:53.772Z,2.73
2024-03-06T00:57:22.069Z,2.73
2024-03-06T00:59:50.236Z,3.00
2024-03-06T01:02:18.502Z,2.80
2024-03-06T01:04:48.159Z,3.07
2024-03-06T01:07:16.335Z,2.47
2024-03-06T01:09:44.562Z,2.60
2024-03-06T01:12:13.032Z,3.00
2024-03-06T01:14:41.226Z,2.93
2024-03-06T01:17:09.476Z,2.70
2024-03-06T01:19:37.833Z,2.20
2024-03-06T01:22:07.971Z,2.00
2024-03-06T01:24:36.173Z,2.47
2024-03-06T01:27:04.624Z,2.20
2024-03-06T01:29:33.156Z,2.33
2024-03-06T01:32:01.386Z,2.53
2024-03-06T01:34:29.592Z,1.90
2024-03-06T01:36:58.228Z,2.63
2024-03-06T01:39:27.746Z,2.03
2024-03-06T01:41:56.018Z,2.30
2024-03-06T01:44:24.204Z,2.73
2024-03-06T01:46:52.428Z,2.43
2024-03-06T01:49:28.213Z,2.07
2024-03-06T01:52:01.827Z,2.07
2024-03-06T01:54:33.252Z,2.17
2024-03-06T01:57:03.579Z,1.93
2024-03-06T01:59:37.057Z,1.83
2024-03-06T02:02:06.322Z,2.60
2024-03-06T02:04:34.769Z,1.80
2024-03-06T02:07:04.473Z,2.33
2024-03-06T02:09:34.045Z,2.30
2024-03-06T02:12:02.893Z,2.20
2024-03-06T02:14:31.488Z,1.93
2024-03-06T02:16:59.721Z,3.23
2024-03-06T02:19:42.188Z,2.50
2024-03-06T02:22:12.084Z,2.00
2024-03-06T02:24:44.861Z,2.13
2024-03-06T02:27:13.136Z,2.70
2024-03-06T02:29:41.337Z,1.70
2024-03-06T02:32:09.733Z,2.23
2024-03-06T02:34:38.134Z,2.03
2024-03-06T02:37:06.941Z,1.70
2024-03-06T02:39:36.494Z,1.80
2024-03-06T02:42:05.364Z,1.90
2024-03-06T02:44:33.521Z,2.00
2024-03-06T02:47:02.115Z,2.60
2024-03-06T02:49:30.830Z,1.80
2024-03-06T02:52:02.179Z,2.03
2024-03-06T02:54:30.441Z,1.67
2024-03-06T02:56:59.928Z,1.73
2024-03-06T02:59:28.189Z,1.97
2024-03-06T03:01:56.454Z,1.87
2024-03-06T03:04:24.703Z,1.70
2024-03-06T03:06:52.896Z,2.00
2024-03-06T03:09:21.793Z,1.90
2024-03-06T03:11:50.157Z,1.70
2024-03-06T03:14:19.736Z,1.90
2024-03-06T03:16:47.948Z,2.20
2024-03-06T03:19:17.465Z,2.50
2024-03-06T03:21:46.797Z,1.90
2024-03-06T03:24:15.055Z,1.87
2024-03-06T03:26:43.677Z,1.80
2024-03-06T03:29:11.998Z,1.83
2024-03-06T03:31:41.613Z,1.87
2024-03-06T03:34:09.978Z,2.03
2024-03-06T03:36:42.437Z,2.00
2024-03-06T03:39:16.979Z,1.87
2024-03-06T03:41:47.014Z,1.77
2024-03-06T03:44:16.019Z,2.00
2024-03-06T03:46:45.056Z,1.50
2024-03-06T03:49:13.676Z,1.63
2024-03-06T03:51:42.700Z,1.73
2024-03-06T03:54:10.878Z,1.83
2024-03-06T03:56:39.827Z,3.37
2024-03-06T03:59:08.546Z,1.97
2024-03-06T04:01:37.035Z,1.83
2024-03-06T04:04:08.190Z,1.47
2024-03-06T04:06:36.669Z,1.50
2024-03-06T04:09:05.703Z,1.40
2024-03-06T04:11:35.269Z,1.90
2024-03-06T04:14:03.652Z,1.80
2024-03-06T04:16:34.127Z,1.80
2024-03-06T04:19:02.924Z,2.00
2024-03-06T04:21:32.480Z,1.47
2024-03-06T04:24:00.621Z,1.63
2024-03-06T04:26:28.810Z,1.73
2024-03-06T04:28:57.008Z,1.73
2024-03-06T04:31:25.753Z,1.73
2024-03-06T04:33:54.014Z,1.73
2024-03-06T04:36:22.253Z,2.27
2024-03-06T04:38:52.400Z,3.03
2024-03-06T04:41:21.157Z,1.20
2024-03-06T04:43:51.810Z,1.63
2024-03-06T04:46:20.392Z,1.70
2024-03-06T04:48:49.612Z,1.70
2024-03-06T04:51:20.908Z,1.70
2024-03-06T04:53:49.897Z,1.70
2024-03-06T04:56:21.897Z,1.93
2024-03-06T04:58:49.492Z,1.50
2024-03-06T05:01:17.762Z,1.60
2024-03-06T05:59:09.098Z,1.37
2024-03-06T06:01:38.808Z,1.87
2024-03-06T06:04:08.360Z,1.30
2024-03-06T06:06:36.806Z,1.40
2024-03-06T06:09:07.492Z,1.50
2024-03-06T06:11:36.024Z,1.50
2024-03-06T06:14:04.360Z,1.20
2024-03-06T06:16:39.743Z,2.87
2024-03-06T06:19:08.044Z,3.37
2024-03-06T06:21:37.233Z,1.00
2024-03-06T06:24:06.657Z,1.50
2024-03-06T06:26:35.040Z,1.40
2024-03-06T06:29:03.742Z,4.57
2024-03-06T06:31:32.488Z,1.07
2024-03-06T06:34:02.644Z,2.53
2024-03-06T06:36:30.850Z,1.70
2024-03-06T06:39:00.037Z,1.37
2024-03-06T06:41:28.941Z,2.10
2024-03-06T06:43:57.071Z,1.70
2024-03-06T06:46:25.258Z,1.43
2024-03-06T06:48:53.442Z,2.93
2024-03-06T06:51:24.216Z,1.23
2024-03-06T06:53:52.419Z,1.70
2024-03-06T06:56:20.788Z,1.57
2024-03-06T06:58:49.175Z,1.17
2024-03-06T07:01:18.214Z,2.00
2024-03-06T07:03:46.776Z,1.70
2024-03-06T07:06:14.988Z,1.73
2024-03-06T07:08:44.579Z,1.40
2024-03-06T07:11:13.246Z,2.53
2024-03-06T07:13:41.496Z,1.40
2024-03-06T07:16:10.432Z,1.30
2024-03-06T07:18:38.841Z,1.63
2024-03-06T07:21:07.468Z,0.93
2024-03-06T07:23:35.819Z,1.60
2024-03-06T07:26:06.288Z,3.40
2024-03-06T07:28:34.612Z,1.57
2024-03-06T07:31:03.891Z,1.50
2024-03-06T07:33:35.123Z,2.30
2024-03-06T07:36:03.460Z,1.60
2024-03-06T07:38:31.800Z,1.40
2024-03-06T07:41:00.141Z,1.30
2024-03-06T07:43:29.712Z,1.33
2024-03-06T07:45:57.943Z,1.30
2024-03-06T07:48:26.195Z,3.90
2024-03-06T07:50:54.392Z,1.80
2024-03-06T07:53:22.691Z,1.30
2024-03-06T07:55:50.966Z,1.27
2024-03-06T07:58:19.138Z,1.63
2024-03-06T08:00:48.780Z,1.30
2024-03-06T08:03:17.001Z,1.43
2024-03-06T08:05:46.405Z,1.40
2024-03-06T08:08:14.658Z,1.00
2024-03-06T08:10:42.878Z,1.10
2024-03-06T08:13:11.063Z,1.30
2024-03-06T08:15:39.350Z,1.40
2024-03-06T08:18:09.304Z,2.40
2024-03-06T08:20:38.505Z,0.97
2024-03-06T08:23:06.939Z,1.10
2024-03-06T08:25:35.156Z,1.37
2024-03-06T08:28:04.315Z,1.57
2024-03-06T08:30:32.640Z,1.57
2024-03-06T08:33:01.681Z,1.37
2024-03-06T08:35:33.130Z,1.63
2024-03-06T08:38:02.524Z,1.03
2024-03-06T08:40:30.883Z,0.83
2024-03-06T08:42:59.642Z,0.77
2024-03-06T08:45:27.914Z,1.13
2024-03-06T08:47:56.257Z,1.13
2024-03-06T08:50:24.596Z,1.00
2024-03-06T08:52:54.317Z,1.10
2024-03-06T08:55:22.604Z,1.03
2024-03-06T08:57:53.772Z,1.03
2024-03-06T09:00:22.229Z,1.50
2024-03-06T09:02:51.110Z,0.97
2024-03-06T09:05:19.449Z,1.23
2024-03-06T09:07:47.959Z,2.60
2024-03-06T09:10:18.508Z,1.30
2024-03-06T09:12:46.948Z,1.07
2024-03-06T09:15:17.612Z,0.90
2024-03-06T09:17:46.816Z,1.30
2024-03-06T09:20:17.158Z,3.67
2024-03-06T09:22:45.534Z,1.03
2024-03-06T09:25:16.445Z,1.47
2024-03-06T09:27:46.540Z,0.93
2024-03-06T09:30:16.896Z,1.97
2024-03-06T09:32:45.875Z,1.20
2024-03-06T09:35:15.461Z,1.27
2024-03-06T09:37:44.353Z,2.77
2024-03-06T09:40:21.588Z,1.47
2024-03-06T09:42:51.632Z,1.50
2024-03-06T09:45:20.980Z,1.10
2024-03-06T09:47:51.962Z,1.80
2024-03-06T09:50:25.752Z,0.90
2024-03-06T09:52:55.482Z,3.07
2024-03-06T09:55:25.032Z,1.03
2024-03-06T09:57:54.785Z,0.87
2024-03-06T10:00:24.884Z,1.33
2024-03-06T10:02:59.347Z,1.20
2024-03-06T10:05:28.447Z,0.93
2024-03-06T10:07:56.780Z,1.13
2024-03-06T10:10:25.013Z,0.93
2024-03-06T10:12:54.698Z,1.13
2024-03-06T10:15:23.378Z,1.33
2024-03-06T10:17:51.844Z,0.97
2024-03-06T10:20:22.277Z,1.03
2024-03-06T10:22:55.818Z,1.20
2024-03-06T10:25:27.326Z,1.60
2024-03-06T10:28:10.372Z,0.90
2024-03-06T10:30:43.176Z,1.20
2024-03-06T10:33:12.437Z,1.50
2024-03-06T10:35:43.042Z,1.47
2024-03-06T10:38:12.765Z,3.07
2024-03-06T10:40:42.364Z,1.00
2024-03-06T10:43:12.721Z,1.40
2024-03-06T10:45:47.132Z,1.40
2024-03-06T10:48:16.114Z,1.00
2024-03-06T10:50:46.402Z,1.20
2024-03-06T10:53:20.154Z,3.33
2024-03-06T10:55:52.127Z,1.00
2024-03-06T10:58:22.744Z,1.33
2024-03-06T11:00:53.575Z,1.50
2024-03-06T11:03:22.438Z,1.00
2024-03-06T11:05:53.106Z,1.40
2024-03-06T11:08:22.801Z,2.13
2024-03-06T11:10:53.280Z,2.43
2024-03-06T11:13:28.069Z,3.30
2024-03-06T11:16:00.290Z,5.97
2024-03-06T11:18:44.354Z,6.03
2024-03-06T11:21:31.963Z,7.10
2024-03-06T11:24:17.704Z,8.23
2024-03-06T11:26:48.766Z,8.30
2024-03-06T11:29:22.588Z,8.23
2024-03-06T11:32:07.879Z,9.60
2024-03-06T11:34:37.135Z,6.77
2024-03-06T11:37:11.180Z,7.90
2024-03-06T11:39:42.725Z,10.50
2024-03-06T11:42:12.213Z,7.10
2024-03-06T11:44:57.581Z,10.53
2024-03-06T11:47:25.989Z,9.67
2024-03-06T11:49:56.019Z,9.43
2024-03-06T11:52:25.164Z,8.23
2024-03-06T11:54:55.693Z,9.60
2024-03-06T11:57:24.788Z,9.20
2024-03-06T11:59:55.598Z,6.13
2024-03-06T12:02:24.153Z,7.50
2024-03-06T12:04:52.767Z,5.13
2024-03-06T12:07:21.143Z,7.73
2024-03-06T12:09:49.467Z,11.47
2024-03-06T12:12:18.252Z,10.20
2024-03-06T12:14:56.836Z,12.03
2024-03-06T12:17:27.028Z,12.07
2024-03-06T12:19:58.239Z,11.00
2024-03-06T12:22:27.735Z,9.50
2024-03-06T12:25:01.349Z,7.90
2024-03-06T12:27:29.623Z,13.17
2024-03-06T12:29:57.875Z,7.83
2024-03-06T12:32:31.063Z,8.13
2024-03-06T12:35:01.342Z,14.90
2024-03-06T12:37:33.887Z,10.10
2024-03-06T12:40:02.623Z,12.30
2024-03-06T12:42:32.849Z,6.73
2024-03-06T12:45:01.225Z,8.17
2024-03-06T12:47:31.070Z,9.43
2024-03-06T12:50:00.481Z,7.20
2024-03-06T12:52:37.285Z,6.27
2024-03-06T12:55:06.565Z,5.27
2024-03-06T12:57:34.839Z,6.03
2024-03-06T13:00:03.543Z,10.10
2024-03-06T13:02:33.219Z,8.17
2024-03-06T13:05:01.629Z,8.97
2024-03-06T13:07:30.910Z,6.40
2024-03-06T13:10:00.924Z,9.77
2024-03-06T13:12:31.025Z,9.00
2024-03-06T13:14:59.610Z,11.47
2024-03-06T13:17:30.217Z,5.53
2024-03-06T13:19:59.881Z,6.80
2024-03-06T13:22:28.238Z,10.93
2024-03-06T13:24:58.435Z,5.17
2024-03-06T13:27:26.885Z,8.07
2024-03-06T13:29:55.711Z,7.50
2024-03-06T13:32:24.265Z,6.27
2024-03-06T13:34:52.659Z,6.17
2024-03-06T13:37:23.785Z,5.83
2024-03-06T13:39:53.849Z,7.97
2024-03-06T13:42:22.085Z,6.40
2024-03-06T13:44:50.351Z,6.47
2024-03-06T13:47:19.466Z,5.80
2024-03-06T13:49:47.790Z,4.97
2024-03-06T13:52:16.593Z,5.07
2024-03-06T13:54:46.259Z,9.50
2024-03-06T13:57:15.184Z,4.20
2024-03-06T13:59:43.776Z,4.73
2024-03-06T14:02:12.820Z,8.80
2024-03-06T14:04:41.352Z,8.20
2024-03-06T14:07:09.726Z,5.40
2024-03-06T14:09:38.549Z,6.80
2024-03-06T14:12:09.558Z,10.47
2024-03-06T14:14:37.959Z,5.40
2024-03-06T14:17:06.567Z,10.80
2024-03-06T14:19:34.824Z,6.27
2024-03-06T14:22:04.872Z,4.40
2024-03-06T14:24:34.426Z,3.40
2024-03-06T14:27:03.108Z,5.90
2024-03-06T14:29:32.883Z,6.43
2024-03-06T14:32:01.317Z,4.53
2024-03-06T14:34:29.803Z,3.87
2024-03-06T14:36:58.230Z,5.53
2024-03-06T14:39:27.108Z,4.97
2024-03-06T14:41:55.616Z,6.03
2024-03-06T14:44:24.071Z,5.13
2024-03-06T14:46:54.276Z,5.33
2024-03-06T14:49:22.524Z,4.50
2024-03-06T14:51:50.751Z,5.63
2024-03-06T14:54:18.961Z,5.20
2024-03-06T14:56:47.318Z,8.30
2024-03-06T14:59:15.673Z,5.07
2024-03-06T15:01:45.470Z,5.50
2024-03-06T15:04:15.062Z,6.00
2024-03-06T15:06:43.288Z,2.93
2024-03-06T15:09:13.094Z,5.07
2024-03-06T15:11:41.909Z,5.07
2024-03-06T15:14:10.924Z,5.53
2024-03-06T15:16:39.825Z,6.13
2024-03-06T15:19:08.178Z,4.57
2024-03-06T15:21:37.911Z,7.60
2024-03-06T15:24:06.985Z,3.83
2024-03-06T15:26:36.636Z,6.23
2024-03-06T15:29:06.427Z,6.70
2024-03-06T15:31:34.814Z,10.10
2024-03-06T15:34:03.026Z,7.73
2024-03-06T15:36:31.782Z,5.70
2024-03-06T15:39:01.370Z,3.70
2024-03-06T15:41:29.625Z,5.60
2024-03-06T15:43:58.148Z,7.23
2024-03-06T15:46:27.315Z,7.80
2024-03-06T15:48:55.705Z,10.10
2024-03-06T15:51:23.950Z,7.90
2024-03-06T15:53:53.757Z,7.70
2024-03-06T15:56:23.724Z,6.43
2024-03-06T15:58:53.199Z,2.30
2024-03-06T16:01:21.432Z,5.10
2024-03-06T16:03:53.490Z,6.37
2024-03-06T16:06:26.004Z,7.63
2024-03-06T16:08:58.660Z,8.57
2024-03-06T16:11:29.592Z,5.00
2024-03-06T16:14:00.267Z,5.83
2024-03-06T16:16:28.677Z,5.73
2024-03-06T16:18:56.899Z,7.50
2024-03-06T16:21:26.358Z,6.47
2024-03-06T16:23:54.875Z,7.60
2024-03-06T16:26:23.252Z,8.10
2024-03-06T16:28:52.855Z,7.17
2024-03-06T16:31:22.277Z,7.83
2024-03-06T16:33:50.680Z,8.60
2024-03-06T16:36:18.878Z,7.27
2024-03-06T16:38:47.136Z,7.83
2024-03-06T16:41:15.438Z,8.90
2024-03-06T16:43:44.722Z,10.60
2024-03-06T16:46:14.298Z,34.70
2024-03-06T16:48:42.550Z,10.57
2024-03-06T16:51:11.348Z,14.30
2024-03-06T16:53:41.116Z,8.73
2024-03-06T16:56:09.432Z,12.77
2024-03-06T16:58:38.099Z,11.70
2024-03-06T17:01:06.577Z,12.13
2024-03-06T17:03:36.265Z,11.57
2024-03-06T17:06:04.674Z,3.60
2024-03-06T17:08:34.367Z,4.43
2024-03-06T17:11:02.685Z,3.63
2024-03-06T17:13:31.051Z,3.37
2024-03-06T17:15:59.485Z,2.67
2024-03-06T17:18:27.750Z,3.90
2024-03-06T17:20:57.381Z,2.93
2024-03-06T17:23:28.657Z,2.87
2024-03-06T17:25:57.745Z,4.10
2024-03-06T17:28:26.442Z,3.30
2024-03-06T17:30:54.948Z,2.80
2024-03-06T17:33:24.162Z,2.87
2024-03-06T17:35:52.462Z,5.50
2024-03-06T17:38:23.664Z,3.50
2024-03-06T17:40:51.833Z,2.33
2024-03-06T17:43:22.861Z,6.13
2024-03-06T17:45:51.088Z,2.63
2024-03-06T17:48:19.430Z,4.37
2024-03-06T17:50:48.285Z,2.13
2024-03-06T17:53:16.588Z,2.93
2024-03-06T17:55:46.127Z,3.37
2024-03-06T17:58:14.358Z,2.90
2024-03-06T18:00:42.607Z,4.53
2024-03-06T18:03:11.138Z,2.80
2024-03-06T18:05:39.381Z,2.50
2024-03-06T18:08:08.807Z,2.63
2024-03-06T18:10:37.447Z,2.47
2024-03-06T18:13:07.145Z,3.00
2024-03-06T18:15:35.403Z,2.33
2024-03-06T18:18:03.718Z,2.77
2024-03-06T18:20:32.050Z,2.63
2024-03-06T18:23:00.321Z,3.03
2024-03-06T18:25:29.849Z,3.60
2024-03-06T18:27:58.333Z,2.40
2024-03-06T18:30:27.897Z,3.17
2024-03-06T18:32:56.402Z,3.30
2024-03-06T18:35:24.680Z,2.63
2024-03-06T18:37:53.126Z,4.53
2024-03-06T18:40:21.289Z,2.70
2024-03-06T18:42:49.514Z,2.03
2024-03-06T18:45:18.783Z,3.90
2024-03-06T18:47:48.460Z,1.97
2024-03-06T18:50:17.124Z,3.10
2024-03-06T18:52:45.528Z,2.20
2024-03-06T18:55:14.563Z,4.13
2024-03-06T18:57:43.021Z,4.03
2024-03-06T19:00:13.496Z,2.07
2024-03-06T19:02:42.040Z,3.17
2024-03-06T19:05:11.864Z,3.97
2024-03-06T19:07:40.087Z,3.20
2024-03-06T19:10:09.538Z,1.80
2024-03-06T19:12:37.741Z,2.13
2024-03-06T19:15:07.725Z,2.90
2024-03-06T19:17:36.979Z,1.80
2024-03-06T19:20:07.211Z,2.57
2024-03-06T19:22:37.237Z,2.17
2024-03-06T19:25:06.864Z,4.80
2024-03-06T19:27:36.204Z,1.90
2024-03-06T19:30:04.968Z,2.20
2024-03-06T19:32:42.836Z,4.17
2024-03-06T19:35:15.274Z,4.50
2024-03-06T19:37:44.904Z,4.20
2024-03-06T19:40:14.190Z,5.43
2024-03-06T19:42:42.877Z,8.53
2024-03-06T19:45:11.673Z,10.53
2024-03-06T19:47:40.178Z,7.93
2024-03-06T19:50:09.940Z,10.90
2024-03-06T19:52:39.174Z,18.70
2024-03-06T19:55:09.933Z,15.37
2024-03-06T19:57:38.333Z,17.00
2024-03-06T20:00:12.660Z,17.77
2024-03-06T20:02:41.328Z,19.20
2024-03-06T20:05:12.787Z,20.37
2024-03-06T20:07:42.692Z,18.90
2024-03-06T20:10:12.529Z,21.97
2024-03-06T20:12:41.035Z,18.07
2024-03-06T20:15:09.908Z,17.60
2024-03-06T20:17:38.603Z,18.20
2024-03-06T20:20:12.324Z,19.57
2024-03-06T20:22:41.359Z,17.37
2024-03-06T20:25:11.719Z,17.37
2024-03-06T20:27:42.380Z,17.53
2024-03-06T20:30:11.613Z,19.10
2024-03-06T20:32:40.199Z,15.03
2024-03-06T20:35:09.762Z,17.40
2024-03-06T20:37:38.025Z,17.90
2024-03-06T20:40:07.536Z,16.97
2024-03-06T20:42:35.753Z,15.90
2024-03-06T20:45:05.768Z,16.70
2024-03-06T20:47:34.157Z,15.07
2024-03-06T20:50:03.646Z,16.50
2024-03-06T20:52:31.876Z,18.17
2024-03-06T20:55:00.213Z,15.90
2024-03-06T20:57:28.517Z,14.67
2024-03-06T20:59:57.161Z,10.37
2024-03-06T21:02:26.931Z,13.67
2024-03-06T21:04:56.194Z,13.87
2024-03-06T21:07:24.389Z,12.17
2024-03-06T21:09:52.581Z,13.53
2024-03-06T21:12:22.292Z,12.33
2024-03-06T21:14:53.520Z,15.10
2024-03-06T21:17:21.830Z,11.47
2024-03-06T21:19:51.902Z,10.73
2024-03-06T21:22:22.292Z,11.40
2024-03-06T21:24:50.620Z,8.73
2024-03-06T21:27:19.142Z,12.17
2024-03-06T21:29:48.637Z,10.20
2024-03-06T21:32:18.210Z,9.50
2024-03-06T21:34:46.585Z,11.20
2024-03-06T21:37:16.847Z,9.07
2024-03-06T21:39:45.038Z,8.17
2024-03-06T21:42:13.245Z,9.70
2024-03-06T21:44:42.958Z,8.43
2024-03-06T21:47:11.297Z,7.47
2024-03-06T21:49:39.748Z,6.77
2024-03-06T21:52:08.936Z,7.50
2024-03-06T21:54:38.523Z,7.60
2024-03-06T21:57:12.261Z,8.00
2024-03-06T21:59:41.483Z,7.27
2024-03-06T22:02:11.728Z,8.10
2024-03-06T22:04:40.152Z,7.20
2024-03-06T22:07:08.404Z,6.90
2024-03-06T22:09:38.725Z,8.53
2024-03-06T22:12:07.759Z,8.37
2024-03-06T22:14:35.983Z,6.63
2024-03-06T22:17:04.204Z,6.03
2024-03-06T22:19:32.402Z,6.73
2024-03-06T22:22:00.562Z,6.60
2024-03-06T22:24:28.740Z,5.87
2024-03-06T22:26:58.308Z,5.77
2024-03-06T22:29:26.574Z,5.60
2024-03-06T22:31:54.770Z,8.63
2024-03-06T22:34:23.018Z,7.73
2024-03-06T22:36:52.547Z,6.50
2024-03-06T22:39:22.461Z,5.33
2024-03-06T22:41:51.405Z,5.00
2024-03-06T22:44:21.000Z,6.10
2024-03-06T22:46:51.688Z,6.03
2024-03-06T22:49:23.729Z,4.27
2024-03-06T22:51:51.905Z,5.57
2024-03-06T22:54:20.060Z,5.10
2024-03-06T22:56:48.817Z,10.13
2024-03-06T22:59:17.187Z,5.57
2024-03-06T23:01:49.868Z,5.53
2024-03-06T23:04:19.031Z,6.37
2024-03-06T23:06:47.424Z,4.43
2024-03-06T23:09:15.648Z,4.40
2024-03-06T23:11:43.900Z,4.63
2024-03-06T23:14:12.480Z,4.90
2024-03-06T23:16:40.791Z,4.53
2024-03-06T23:19:10.427Z,4.40
2024-03-06T23:21:38.833Z,4.30
2024-03-06T23:24:07.423Z,3.77
2024-03-06T23:26:35.986Z,3.87
2024-03-06T23:29:04.873Z,4.23
2024-03-06T23:31:33.091Z,3.97
2024-03-06T23:34:01.606Z,5.40
2024-03-06T23:36:31.153Z,3.20
2024-03-06T23:38:59.339Z,4.27
2024-03-06T23:41:30.174Z,3.63
2024-03-06T23:43:58.695Z,3.50
2024-03-06T23:46:26.880Z,3.33
2024-03-06T23:48:55.082Z,3.60
2024-03-06T23:51:24.738Z,3.57
2024-03-06T23:53:54.351Z,3.43
2024-03-06T23:56:22.584Z,3.80
2024-03-06T23:58:50.816Z,3.67
